sensor_id;sensor_type;location;lat;lon;timestamp;pressure;altitude;pressure_sealevel;temperature;humidity
52975;BME280;38839;45.186;5.720;2023-04-03T00:00:59;99371.72;;;9.10;83.25
52975;BME280;38839;45.186;5.720;2023-04-03T00:03:25;99371.69;;;9.08;83.09
52975;BME280;38839;45.186;5.720;2023-04-03T00:05:50;99376.06;;;9.09;82.99
52975;BME280;38839;45.186;5.720;2023-04-03T00:08:16;99370.81;;;9.06;82.65
52975;BME280;38839;45.186;5.720;2023-04-03T00:10:42;99367.38;;;9.07;82.47
52975;BME280;38839;45.186;5.720;2023-04-03T00:13:08;99363.03;;;9.09;82.38
52975;BME280;38839;45.186;5.720;2023-04-03T00:15:35;99367.38;;;9.09;82.28
52975;BME280;38839;45.186;5.720;2023-04-03T00:18:01;99366.53;;;9.11;82.17
52975;BME280;38839;45.186;5.720;2023-04-03T00:20:27;99362.19;;;9.12;82.09
52975;BME280;38839;45.186;5.720;2023-04-03T00:22:53;99363.06;;;9.14;81.92
52975;BME280;38839;45.186;5.720;2023-04-03T00:25:18;99363.94;;;9.11;81.79
52975;BME280;38839;45.186;5.720;2023-04-03T00:27:44;99363.09;;;9.17;81.58
52975;BME280;38839;45.186;5.720;2023-04-03T00:30:12;99355.28;;;9.15;81.38
52975;BME280;38839;45.186;5.720;2023-04-03T00:32:38;99353.53;;;9.14;81.41
52975;BME280;38839;45.186;5.720;2023-04-03T00:35:04;99357.00;;;9.16;81.16
52975;BME280;38839;45.186;5.720;2023-04-03T00:37:29;99357.91;;;9.20;81.08
52975;BME280;38839;45.186;5.720;2023-04-03T00:39:55;99350.06;;;9.15;81.61
52975;BME280;38839;45.186;5.720;2023-04-03T00:42:21;99348.31;;;9.11;81.76
52975;BME280;38839;45.186;5.720;2023-04-03T00:47:13;99343.09;;;9.14;81.84
52975;BME280;38839;45.186;5.720;2023-04-03T00:49:41;99348.31;;;9.11;81.88
52975;BME280;38839;45.186;5.720;2023-04-03T00:52:11;99355.25;;;9.09;82.49
52975;BME280;38839;45.186;5.720;2023-04-03T00:54:40;99350.03;;;9.09;82.53
52975;BME280;38839;45.186;5.720;2023-04-03T00:57:07;99348.28;;;9.05;82.75
52975;BME280;38839;45.186;5.720;2023-04-03T00:59:36;99344.75;;;9.00;83.16
52975;BME280;38839;45.186;5.720;2023-04-03T01:02:03;99349.13;;;9.04;82.86
52975;BME280;38839;45.186;5.720;2023-04-03T01:04:33;99345.66;;;9.00;83.25
52975;BME280;38839;45.186;5.720;2023-04-03T01:07:10;99350.81;;;8.97;83.52
52975;BME280;38839;45.186;5.720;2023-04-03T01:09:38;99339.56;;;9.00;83.58
52975;BME280;38839;45.186;5.720;2023-04-03T01:12:21;99343.03;;;9.02;83.43
52975;BME280;38839;45.186;5.720;2023-04-03T01:14:51;99342.19;;;9.06;83.18
52975;BME280;38839;45.186;5.720;2023-04-03T01:25:28;99330.00;;;8.94;83.43
52975;BME280;38839;45.186;5.720;2023-04-03T01:27:53;99326.50;;;8.94;83.46
52975;BME280;38839;45.186;5.720;2023-04-03T01:30:20;99325.63;;;8.89;83.87
52975;BME280;38839;45.186;5.720;2023-04-03T01:32:48;99324.75;;;8.90;83.44
52975;BME280;38839;45.186;5.720;2023-04-03T01:35:14;99314.34;;;8.88;83.46
52975;BME280;38839;45.186;5.720;2023-04-03T01:37:39;99316.94;;;8.90;83.32
52975;BME280;38839;45.186;5.720;2023-04-03T01:40:05;99320.44;;;8.90;83.29
52975;BME280;38839;45.186;5.720;2023-04-03T01:42:32;99328.19;;;8.87;83.28
52975;BME280;38839;45.186;5.720;2023-04-03T01:44:57;99321.25;;;8.88;83.20
52975;BME280;38839;45.186;5.720;2023-04-03T01:47:23;99318.66;;;8.88;82.97
52975;BME280;38839;45.186;5.720;2023-04-03T01:49:48;99322.19;;;8.96;82.66
52975;BME280;38839;45.186;5.720;2023-04-03T01:52:14;99323.09;;;9.01;82.09
52975;BME280;38839;45.186;5.720;2023-04-03T01:54:39;99317.88;;;9.04;81.80
52975;BME280;38839;45.186;5.720;2023-04-03T01:57:05;99316.19;;;9.07;81.36
52975;BME280;38839;45.186;5.720;2023-04-03T01:59:30;99318.81;;;9.09;81.32
52975;BME280;38839;45.186;5.720;2023-04-03T02:01:55;99314.47;;;9.14;81.41
52975;BME280;38839;45.186;5.720;2023-04-03T02:04:21;99315.34;;;9.13;81.10
52975;BME280;38839;45.186;5.720;2023-04-03T02:06:47;99306.66;;;9.14;80.98
52975;BME280;38839;45.186;5.720;2023-04-03T02:09:13;99303.19;;;9.12;81.36
52975;BME280;38839;45.186;5.720;2023-04-03T02:11:39;99310.97;;;9.07;81.43
52975;BME280;38839;45.186;5.720;2023-04-03T02:14:05;99299.72;;;9.07;81.82
52975;BME280;38839;45.186;5.720;2023-04-03T02:16:31;99308.41;;;9.09;81.67
52975;BME280;38839;45.186;5.720;2023-04-03T02:18:57;99311.84;;;9.08;81.62
52975;BME280;38839;45.186;5.720;2023-04-03T02:21:22;99302.28;;;9.04;81.96
52975;BME280;38839;45.186;5.720;2023-04-03T02:23:48;99306.59;;;9.02;82.33
52975;BME280;38839;45.186;5.720;2023-04-03T02:26:15;99310.94;;;9.00;82.35
52975;BME280;38839;45.186;5.720;2023-04-03T02:28:41;99310.09;;;9.01;82.50
52975;BME280;38839;45.186;5.720;2023-04-03T02:31:07;99306.63;;;9.00;82.52
52975;BME280;38839;45.186;5.720;2023-04-03T02:33:33;99309.19;;;8.99;82.60
52975;BME280;38839;45.186;5.720;2023-04-03T02:36:03;99306.59;;;8.99;82.61
52975;BME280;38839;45.186;5.720;2023-04-03T02:38:29;99309.22;;;9.00;82.73
52975;BME280;38839;45.186;5.720;2023-04-03T02:41:00;99303.97;;;8.96;83.08
52975;BME280;38839;45.186;5.720;2023-04-03T02:43:26;99303.13;;;8.97;83.03
52975;BME280;38839;45.186;5.720;2023-04-03T02:45:51;99302.22;;;8.92;83.21
52975;BME280;38839;45.186;5.720;2023-04-03T02:48:16;99307.38;;;8.85;83.38
52975;BME280;38839;45.186;5.720;2023-04-03T02:50:42;99309.13;;;8.85;83.81
52975;BME280;38839;45.186;5.720;2023-04-03T02:53:07;99309.97;;;8.85;84.22
52975;BME280;38839;45.186;5.720;2023-04-03T02:55:33;99298.72;;;8.85;84.40
52975;BME280;38839;45.186;5.720;2023-04-03T02:57:58;99303.91;;;8.85;84.48
52975;BME280;38839;45.186;5.720;2023-04-03T03:00:24;99295.22;;;8.81;84.30
52975;BME280;38839;45.186;5.720;2023-04-03T03:02:49;99298.72;;;8.85;84.02
52975;BME280;38839;45.186;5.720;2023-04-03T03:05:15;99290.88;;;8.80;84.18
52975;BME280;38839;45.186;5.720;2023-04-03T03:07:40;99290.03;;;8.80;83.93
52975;BME280;38839;45.186;5.720;2023-04-03T03:10:06;99294.31;;;8.75;84.28
52975;BME280;38839;45.186;5.720;2023-04-03T03:12:31;99291.72;;;8.75;84.42
52975;BME280;38839;45.186;5.720;2023-04-03T03:14:57;99294.28;;;8.70;84.58
52975;BME280;38839;45.186;5.720;2023-04-03T03:17:22;99280.41;;;8.68;84.72
52975;BME280;38839;45.186;5.720;2023-04-03T03:19:48;99289.09;;;8.70;84.45
52975;BME280;38839;45.186;5.720;2023-04-03T03:22:13;99281.25;;;8.67;84.43
52975;BME280;38839;45.186;5.720;2023-04-03T03:24:38;99292.56;;;8.72;84.20
52975;BME280;38839;45.186;5.720;2023-04-03T03:27:04;99288.19;;;8.68;83.61
52975;BME280;38839;45.186;5.720;2023-04-03T03:29:29;99290.81;;;8.71;83.81
52975;BME280;38839;45.186;5.720;2023-04-03T03:31:55;99288.25;;;8.77;83.59
52975;BME280;38839;45.186;5.720;2023-04-03T03:34:20;99282.16;;;8.72;83.34
52975;BME280;38839;45.186;5.720;2023-04-03T03:36:45;99283.00;;;8.71;83.57
52975;BME280;38839;45.186;5.720;2023-04-03T03:39:11;99278.69;;;8.70;83.54
52975;BME280;38839;45.186;5.720;2023-04-03T03:41:36;99281.31;;;8.72;83.33
52975;BME280;38839;45.186;5.720;2023-04-03T03:44:02;99279.53;;;8.69;83.48
52975;BME280;38839;45.186;5.720;2023-04-03T03:46:27;99280.41;;;8.73;82.91
52975;BME280;38839;45.186;5.720;2023-04-03T03:48:53;99282.19;;;8.74;82.67
52975;BME280;38839;45.186;5.720;2023-04-03T03:51:18;99292.56;;;8.72;82.91
52975;BME280;38839;45.186;5.720;2023-04-03T03:53:43;99294.28;;;8.70;83.13
52975;BME280;38839;45.186;5.720;2023-04-03T03:56:09;99294.28;;;8.70;83.48
52975;BME280;38839;45.186;5.720;2023-04-03T03:58:35;99291.72;;;8.76;83.64
52975;BME280;38839;45.186;5.720;2023-04-03T04:01:03;99288.22;;;8.73;83.44
52975;BME280;38839;45.186;5.720;2023-04-03T04:03:30;99287.41;;;8.80;82.76
52975;BME280;38839;45.186;5.720;2023-04-03T04:05:55;99290.88;;;8.80;82.78
52975;BME280;38839;45.186;5.720;2023-04-03T04:08:21;99289.13;;;8.79;82.40
52975;BME280;38839;45.186;5.720;2023-04-03T04:10:46;99289.13;;;8.79;82.33
52975;BME280;38839;45.186;5.720;2023-04-03T04:13:12;99295.22;;;8.81;82.40
52975;BME280;38839;45.186;5.720;2023-04-03T04:15:37;99285.69;;;8.82;82.23
52975;BME280;38839;45.186;5.720;2023-04-03T04:18:03;99296.97;;;8.82;82.16
52975;BME280;38839;45.186;5.720;2023-04-03T04:20:28;99296.94;;;8.76;81.96
52975;BME280;38839;45.186;5.720;2023-04-03T04:22:53;99280.44;;;8.74;82.42
52975;BME280;38839;45.186;5.720;2023-04-03T04:25:19;99296.94;;;8.76;82.29
52975;BME280;38839;45.186;5.720;2023-04-03T04:27:44;99290.88;;;8.80;82.13
52975;BME280;38839;45.186;5.720;2023-04-03T04:30:10;99296.03;;;8.77;82.64
52975;BME280;38839;45.186;5.720;2023-04-03T04:32:36;99286.47;;;8.73;82.68
52975;BME280;38839;45.186;5.720;2023-04-03T04:35:02;99283.03;;;8.73;82.66
52975;BME280;38839;45.186;5.720;2023-04-03T04:37:29;99288.25;;;8.74;82.86
52975;BME280;38839;45.186;5.720;2023-04-03T04:39:54;99284.75;;;8.72;82.92
52975;BME280;38839;45.186;5.720;2023-04-03T04:42:20;99289.94;;;8.71;82.70
52975;BME280;38839;45.186;5.720;2023-04-03T04:44:45;99284.78;;;8.74;82.86
52975;BME280;38839;45.186;5.720;2023-04-03T04:47:11;99279.56;;;8.74;82.71
52975;BME280;38839;45.186;5.720;2023-04-03T04:49:36;99284.78;;;8.77;82.74
52975;BME280;38839;45.186;5.720;2023-04-03T04:52:02;99278.72;;;8.79;82.56
52975;BME280;38839;45.186;5.720;2023-04-03T04:54:27;99274.41;;;8.78;82.62
52975;BME280;38839;45.186;5.720;2023-04-03T04:56:52;99269.19;;;8.78;82.69
52975;BME280;38839;45.186;5.720;2023-04-03T04:59:18;99275.25;;;8.77;82.69
52975;BME280;38839;45.186;5.720;2023-04-03T05:01:43;99274.34;;;8.72;82.78
52975;BME280;38839;45.186;5.720;2023-04-03T05:04:08;99278.69;;;8.73;82.94
52975;BME280;38839;45.186;5.720;2023-04-03T05:06:34;99263.06;;;8.73;82.94
52975;BME280;38839;45.186;5.720;2023-04-03T05:09:00;99273.47;;;8.73;82.89
52975;BME280;38839;45.186;5.720;2023-04-03T05:11:26;99270.03;;;8.77;82.90
52975;BME280;38839;45.186;5.720;2023-04-03T05:13:52;99270.97;;;8.89;82.96
52975;BME280;38839;45.186;5.720;2023-04-03T05:16:17;99272.84;;;9.14;82.54
52975;BME280;38839;45.186;5.720;2023-04-03T05:18:42;99274.66;;;9.29;81.11
52975;BME280;38839;45.186;5.720;2023-04-03T05:21:08;99268.59;;;9.32;80.80
52975;BME280;38839;45.186;5.720;2023-04-03T05:23:33;99277.28;;;9.34;80.28
52975;BME280;38839;45.186;5.720;2023-04-03T05:25:59;99278.06;;;9.17;80.29
52975;BME280;38839;45.186;5.720;2023-04-03T05:28:24;99273.72;;;9.16;80.08
52975;BME280;38839;45.186;5.720;2023-04-03T05:30:56;99271.09;;;9.12;80.23
52975;BME280;38839;45.186;5.720;2023-04-03T05:33:24;99274.53;;;9.04;80.45
52975;BME280;38839;45.186;5.720;2023-04-03T05:35:49;99272.91;;;9.25;80.04
52975;BME280;38839;45.186;5.720;2023-04-03T05:38:15;99274.63;;;9.23;79.39
52975;BME280;38839;45.186;5.720;2023-04-03T05:40:40;99270.25;;;9.17;79.36
52975;BME280;38839;45.186;5.720;2023-04-03T05:43:06;99278.03;;;9.11;79.60
52975;BME280;38839;45.186;5.720;2023-04-03T05:45:31;99282.41;;;9.18;79.34
52975;BME280;38839;45.186;5.720;2023-04-03T05:47:57;99273.72;;;9.18;79.09
52975;BME280;38839;45.186;5.720;2023-04-03T05:50:22;99263.31;;;9.19;79.17
52975;BME280;38839;45.186;5.720;2023-04-03T05:52:49;99280.72;;;9.25;78.95
52975;BME280;38839;45.186;5.720;2023-04-03T05:55:16;99284.19;;;9.25;78.99
52975;BME280;38839;45.186;5.720;2023-04-03T05:57:42;99281.59;;;9.32;78.87
52975;BME280;38839;45.186;5.720;2023-04-03T06:00:08;99278.09;;;9.26;79.11
52975;BME280;38839;45.186;5.720;2023-04-03T06:02:35;99277.22;;;9.21;79.50
52975;BME280;38839;45.186;5.720;2023-04-03T06:05:01;99279.84;;;9.32;79.17
52975;BME280;38839;45.186;5.720;2023-04-03T06:07:27;99280.75;;;9.45;79.17
52975;BME280;38839;45.186;5.720;2023-04-03T06:09:54;99275.59;;;9.54;78.66
52975;BME280;38839;45.186;5.720;2023-04-03T06:12:21;99282.56;;;9.58;78.29
52975;BME280;38839;45.186;5.720;2023-04-03T06:14:47;99282.56;;;9.58;78.40
52975;BME280;38839;45.186;5.720;2023-04-03T06:17:14;99282.59;;;9.66;78.14
52975;BME280;38839;45.186;5.720;2023-04-03T06:19:40;99286.03;;;9.70;77.96
52975;BME280;38839;45.186;5.720;2023-04-03T06:22:05;99293.00;;;9.67;77.85
52975;BME280;38839;45.186;5.720;2023-04-03T06:24:31;99288.69;;;9.68;77.71
52975;BME280;38839;45.186;5.720;2023-04-03T06:26:57;99280.84;;;9.73;77.76
52975;BME280;38839;45.186;5.720;2023-04-03T06:29:23;99290.44;;;9.81;77.91
52975;BME280;38839;45.186;5.720;2023-04-03T06:31:49;99285.22;;;9.86;77.58
52975;BME280;38839;45.186;5.720;2023-04-03T06:34:15;99291.31;;;9.88;77.54
52975;BME280;38839;45.186;5.720;2023-04-03T06:36:42;99287.81;;;9.86;77.76
52975;BME280;38839;45.186;5.720;2023-04-03T06:39:09;99289.56;;;9.84;77.38
52975;BME280;38839;45.186;5.720;2023-04-03T06:41:37;99286.09;;;9.94;76.63
52975;BME280;38839;45.186;5.720;2023-04-03T06:44:03;99288.72;;;10.00;76.30
52975;BME280;38839;45.186;5.720;2023-04-03T06:46:28;99288.72;;;10.08;75.77
52975;BME280;38839;45.186;5.720;2023-04-03T06:48:54;99289.63;;;10.18;75.06
52975;BME280;38839;45.186;5.720;2023-04-03T06:51:23;99296.56;;;10.16;74.77
52975;BME280;38839;45.186;5.720;2023-04-03T06:53:50;99295.72;;;10.27;74.54
52975;BME280;38839;45.186;5.720;2023-04-03T06:56:16;99292.25;;;10.39;74.14
52975;BME280;38839;45.186;5.720;2023-04-03T06:58:43;99299.19;;;10.39;73.44
52975;BME280;38839;45.186;5.720;2023-04-03T07:01:09;99294.84;;;10.52;72.88
52975;BME280;38839;45.186;5.720;2023-04-03T07:03:36;99298.31;;;10.63;72.27
52975;BME280;38839;45.186;5.720;2023-04-03T07:06:03;99288.75;;;10.77;71.86
52975;BME280;38839;45.186;5.720;2023-04-03T07:08:29;99300.91;;;10.83;71.52
52975;BME280;38839;45.186;5.720;2023-04-03T07:10:55;99295.66;;;10.91;71.14
52975;BME280;38839;45.186;5.720;2023-04-03T07:13:21;99300.00;;;10.98;70.73
52975;BME280;38839;45.186;5.720;2023-04-03T07:15:46;99293.00;;;11.09;70.14
52975;BME280;38839;45.186;5.720;2023-04-03T07:18:12;99303.44;;;11.18;69.92
52975;BME280;38839;45.186;5.720;2023-04-03T07:20:38;99297.34;;;11.18;69.90
52975;BME280;38839;45.186;5.720;2023-04-03T07:23:03;99300.84;;;11.06;70.28
52975;BME280;38839;45.186;5.720;2023-04-03T07:25:29;99298.25;;;11.06;70.56
52975;BME280;38839;45.186;5.720;2023-04-03T07:27:55;99298.22;;;11.18;70.24
52975;BME280;38839;45.186;5.720;2023-04-03T07:30:21;99299.97;;;11.07;70.42
52975;BME280;38839;45.186;5.720;2023-04-03T07:32:47;99300.81;;;11.18;70.00
52975;BME280;38839;45.186;5.720;2023-04-03T07:35:12;99303.44;;;11.18;69.72
52975;BME280;38839;45.186;5.720;2023-04-03T07:37:38;99294.72;;;11.21;69.82
52975;BME280;38839;45.186;5.720;2023-04-03T07:40:04;99295.63;;;11.12;70.22
52975;BME280;38839;45.186;5.720;2023-04-03T07:42:30;99299.94;;;11.19;70.07
52975;BME280;38839;45.186;5.720;2023-04-03T07:44:55;99298.19;;;11.15;69.94
52975;BME280;38839;45.186;5.720;2023-04-03T07:47:21;99293.88;;;11.13;69.86
52975;BME280;38839;45.186;5.720;2023-04-03T07:49:47;99296.47;;;11.20;69.83
52975;BME280;38839;45.186;5.720;2023-04-03T07:52:13;99297.34;;;11.24;69.54
52975;BME280;38839;45.186;5.720;2023-04-03T07:54:41;99293.88;;;11.14;69.61
52975;BME280;38839;45.186;5.720;2023-04-03T07:57:07;99297.31;;;11.27;69.62
52975;BME280;38839;45.186;5.720;2023-04-03T07:59:33;99292.97;;;11.24;69.47
52975;BME280;38839;45.186;5.720;2023-04-03T08:01:58;99289.50;;;11.15;69.64
52975;BME280;38839;45.186;5.720;2023-04-03T08:04:24;99300.00;;;11.04;69.99
52975;BME280;38839;45.186;5.720;2023-04-03T08:06:50;99293.03;;;11.06;70.20
52975;BME280;38839;45.186;5.720;2023-04-03T08:09:16;99297.38;;;11.05;70.35
52975;BME280;38839;45.186;5.720;2023-04-03T08:11:42;99295.66;;;10.98;70.65
52975;BME280;38839;45.186;5.720;2023-04-03T08:14:07;99293.94;;;10.91;70.80
52975;BME280;38839;45.186;5.720;2023-04-03T08:16:33;99293.03;;;11.00;70.69
52975;BME280;38839;45.186;5.720;2023-04-03T08:18:58;99300.00;;;10.95;70.61
52975;BME280;38839;45.186;5.720;2023-04-03T08:21:24;99294.81;;;10.92;70.41
52975;BME280;38839;45.186;5.720;2023-04-03T08:23:50;99295.66;;;10.84;70.70
52975;BME280;38839;45.186;5.720;2023-04-03T08:26:18;99299.19;;;10.76;70.93
52975;BME280;38839;45.186;5.720;2023-04-03T08:28:44;99301.78;;;10.76;71.29
52975;BME280;38839;45.186;5.720;2023-04-03T08:31:12;99308.75;;;10.72;71.18
52975;BME280;38839;45.186;5.720;2023-04-03T08:33:39;99306.16;;;10.71;71.07
52975;BME280;38839;45.186;5.720;2023-04-03T08:36:06;99303.50;;;10.95;70.44
52975;BME280;38839;45.186;5.720;2023-04-03T08:38:32;99302.59;;;11.01;70.12
52975;BME280;38839;45.186;5.720;2023-04-03T08:41:14;99305.22;;;11.04;70.16
52975;BME280;38839;45.186;5.720;2023-04-03T08:46:11;99304.25;;;11.30;69.48
52975;BME280;38839;45.186;5.720;2023-04-03T08:48:42;99299.88;;;11.41;69.52
52975;BME280;38839;45.186;5.720;2023-04-03T08:51:15;99298.06;;;11.54;69.56
52975;BME280;38839;45.186;5.720;2023-04-03T08:53:55;99299.75;;;11.62;69.12
52975;BME280;38839;45.186;5.720;2023-04-03T08:56:24;99291.88;;;11.70;68.70
52975;BME280;38839;45.186;5.720;2023-04-03T08:58:56;99289.34;;;11.59;68.78
52975;BME280;38839;45.186;5.720;2023-04-03T09:01:27;99289.28;;;11.68;68.87
52975;BME280;38839;45.186;5.720;2023-04-03T09:03:55;99297.22;;;11.44;69.44
52975;BME280;38839;45.186;5.720;2023-04-03T09:06:26;99288.41;;;11.66;68.72
52975;BME280;38839;45.186;5.720;2023-04-03T09:11:31;99278.84;;;11.62;68.76
52975;BME280;38839;45.186;5.720;2023-04-03T09:16:54;99278.88;;;11.59;68.79
52975;BME280;38839;45.186;5.720;2023-04-03T09:24:36;99268.16;;;12.05;67.08
52975;BME280;38839;45.186;5.720;2023-04-03T09:27:05;99268.25;;;11.95;67.10
52975;BME280;38839;45.186;5.720;2023-04-03T09:29:35;99265.63;;;11.93;67.07
52975;BME280;38839;45.186;5.720;2023-04-03T09:32:19;99268.28;;;11.81;67.36
52975;BME280;38839;45.186;5.720;2023-04-03T09:34:45;99265.69;;;11.81;67.53
52975;BME280;38839;45.186;5.720;2023-04-03T09:37:33;99259.56;;;11.85;67.72
52975;BME280;38839;45.186;5.720;2023-04-03T09:40:02;99259.63;;;11.76;67.76
52975;BME280;38839;45.186;5.720;2023-04-03T09:42:30;99270.16;;;11.60;68.33
52975;BME280;38839;45.186;5.720;2023-04-03T09:44:59;99275.41;;;11.54;68.85
52975;BME280;38839;45.186;5.720;2023-04-03T09:47:30;99266.81;;;11.31;69.56
52975;BME280;38839;45.186;5.720;2023-04-03T09:50:19;99256.28;;;11.46;69.77
52975;BME280;38839;45.186;5.720;2023-04-03T09:52:47;99260.66;;;11.45;69.73
52975;BME280;38839;45.186;5.720;2023-04-03T09:55:17;99258.03;;;11.47;70.08
52975;BME280;38839;45.186;5.720;2023-04-03T09:57:44;99264.94;;;11.60;69.46
52975;BME280;38839;45.186;5.720;2023-04-03T10:02:50;99249.97;;;11.90;68.50
52975;BME280;38839;45.186;5.720;2023-04-03T10:05:36;99245.50;;;12.06;68.19
52975;BME280;38839;45.186;5.720;2023-04-03T10:08:09;99244.75;;;11.88;68.20
52975;BME280;38839;45.186;5.720;2023-04-03T10:10:35;99241.34;;;11.73;68.66
52975;BME280;38839;45.186;5.720;2023-04-03T10:15:39;99233.63;;;11.50;69.26
52975;BME280;38839;45.186;5.720;2023-04-03T10:18:20;99230.13;;;11.57;68.96
52975;BME280;38839;45.186;5.720;2023-04-03T10:20:53;99231.91;;;11.47;68.78
52975;BME280;38839;45.186;5.720;2023-04-03T10:23:27;99232.75;;;11.57;68.19
52975;BME280;38839;45.186;5.720;2023-04-03T10:26:09;99233.47;;;11.76;67.37
52975;BME280;38839;45.186;5.720;2023-04-03T10:28:51;99220.28;;;12.00;66.42
52975;BME280;38839;45.186;5.720;2023-04-03T10:31:28;99223.69;;;12.10;66.19
52975;BME280;38839;45.186;5.720;2023-04-03T10:36:50;99221.19;;;11.87;66.77
52975;BME280;38839;45.186;5.720;2023-04-03T10:42:45;99211.63;;;11.84;66.87
52975;BME280;38839;45.186;5.720;2023-04-03T10:45:30;99216.84;;;11.87;66.21
52975;BME280;38839;45.186;5.720;2023-04-03T10:48:10;99209.19;;;11.60;67.00
52975;BME280;38839;45.186;5.720;2023-04-03T10:56:47;99203.78;;;11.92;65.27
52975;BME280;38839;45.186;5.720;2023-04-03T10:59:33;99193.28;;;11.95;64.78
52975;BME280;38839;45.186;5.720;2023-04-03T11:02:05;99186.34;;;11.85;64.73
52975;BME280;38839;45.186;5.720;2023-04-03T11:04:36;99183.75;;;11.85;64.33
52975;BME280;38839;45.186;5.720;2023-04-03T11:07:18;99168.88;;;11.98;64.32
52975;BME280;38839;45.186;5.720;2023-04-03T11:09:49;99166.97;;;12.14;63.15
52975;BME280;38839;45.186;5.720;2023-04-03T11:12:24;99164.91;;;12.48;62.43
52975;BME280;38839;45.186;5.720;2023-04-03T11:14:53;99164.69;;;12.68;61.61
52975;BME280;38839;45.186;5.720;2023-04-03T11:22:42;99149.91;;;12.64;61.49
52975;BME280;38839;45.186;5.720;2023-04-03T11:27:58;99138.50;;;12.68;60.09
52975;BME280;38839;45.186;5.720;2023-04-03T11:35:25;99133.50;;;12.46;60.59
52975;BME280;38839;45.186;5.720;2023-04-03T11:37:52;99134.34;;;12.50;60.80
52975;BME280;38839;45.186;5.720;2023-04-03T11:40:29;99128.25;;;12.50;60.47
52975;BME280;38839;45.186;5.720;2023-04-03T11:50:48;99121.38;;;12.39;61.68
52975;BME280;38839;45.186;5.720;2023-04-03T11:53:25;99122.94;;;12.56;61.55
52975;BME280;38839;45.186;5.720;2023-04-03T11:58:21;99109.41;;;12.91;60.38
52975;BME280;38839;45.186;5.720;2023-04-03T12:00:59;99103.16;;;13.03;59.29
52975;BME280;38839;45.186;5.720;2023-04-03T12:05:54;99088.31;;;13.02;58.80
52975;BME280;38839;45.186;5.720;2023-04-03T12:08:29;99095.38;;;12.98;58.06
52975;BME280;38839;45.186;5.720;2023-04-03T12:13:39;99092.69;;;13.01;58.00
52975;BME280;38839;45.186;5.720;2023-04-03T12:16:06;99084.44;;;13.31;56.75
52975;BME280;38839;45.186;5.720;2023-04-03T12:45:51;99043.66;;;13.67;55.54
52975;BME280;38839;45.186;5.720;2023-04-03T12:48:26;99043.78;;;13.59;55.98
52975;BME280;38839;45.186;5.720;2023-04-03T12:50:52;99036.94;;;13.52;56.14
52975;BME280;38839;45.186;5.720;2023-04-03T12:53:29;99032.19;;;13.74;55.77
52975;BME280;38839;45.186;5.720;2023-04-03T12:56:23;99034.19;;;13.58;56.29
52975;BME280;38839;45.186;5.720;2023-04-03T12:58:51;99028.22;;;13.52;56.75
52975;BME280;38839;45.186;5.720;2023-04-03T13:01:20;99021.09;;;13.60;56.87
52975;BME280;38839;45.186;5.720;2023-04-03T13:03:56;99026.56;;;13.44;57.78
52975;BME280;38839;45.186;5.720;2023-04-03T13:06:33;99023.41;;;13.22;59.09
52975;BME280;38839;45.186;5.720;2023-04-03T13:09:00;99027.47;;;12.84;59.91
52975;BME280;38839;45.186;5.720;2023-04-03T13:11:35;99033.75;;;12.71;60.38
52975;BME280;38839;45.186;5.720;2023-04-03T13:14:04;99034.75;;;12.61;60.70
52975;BME280;38839;45.186;5.720;2023-04-03T13:16:31;99032.38;;;12.45;61.25
52975;BME280;38839;45.186;5.720;2023-04-03T13:18:58;99034.97;;;12.47;61.17
52975;BME280;38839;45.186;5.720;2023-04-03T13:21:28;99042.63;;;12.61;61.10
52975;BME280;38839;45.186;5.720;2023-04-03T13:23:59;99045.50;;;12.41;61.68
52975;BME280;38839;45.186;5.720;2023-04-03T13:26:31;99038.88;;;12.09;62.51
52975;BME280;38839;45.186;5.720;2023-04-03T13:29:04;99044.03;;;12.18;62.57
52975;BME280;38839;45.186;5.720;2023-04-03T13:31:36;99039.38;;;12.43;62.41
52975;BME280;38839;45.186;5.720;2023-04-03T13:34:05;99032.38;;;12.44;61.78
52975;BME280;38839;45.186;5.720;2023-04-03T13:36:34;99034.13;;;12.43;61.94
52975;BME280;38839;45.186;5.720;2023-04-03T13:41:39;99034.28;;;12.31;61.63
52975;BME280;38839;45.186;5.720;2023-04-03T13:46:50;99020.03;;;12.54;61.54
52975;BME280;38839;45.186;5.720;2023-04-03T13:49:20;99025.78;;;12.82;60.82
52975;BME280;38839;45.186;5.720;2023-04-03T13:51:45;99021.34;;;12.85;61.09
52975;BME280;38839;45.186;5.720;2023-04-03T13:54:23;99020.56;;;12.80;60.59
52975;BME280;38839;45.186;5.720;2023-04-03T13:56:56;99025.97;;;12.66;60.85
52975;BME280;38839;45.186;5.720;2023-04-03T13:59:27;99023.16;;;12.80;60.83
52975;BME280;38839;45.186;5.720;2023-04-03T14:04:30;99015.38;;;12.76;61.27
52975;BME280;38839;45.186;5.720;2023-04-03T14:06:56;99016.34;;;12.70;61.18
52975;BME280;38839;45.186;5.720;2023-04-03T14:09:23;99007.78;;;12.57;61.62
52975;BME280;38839;45.186;5.720;2023-04-03T14:11:52;99016.66;;;12.45;61.74
52975;BME280;38839;45.186;5.720;2023-04-03T14:14:24;99016.84;;;12.30;62.57
52975;BME280;38839;45.186;5.720;2023-04-03T14:16:54;99008.16;;;12.28;62.97
52975;BME280;38839;45.186;5.720;2023-04-03T14:19:24;99008.84;;;12.42;62.54
52975;BME280;38839;45.186;5.720;2023-04-03T14:21:51;99011.38;;;12.48;62.27
52975;BME280;38839;45.186;5.720;2023-04-03T14:24:18;99029.06;;;12.31;62.76
52975;BME280;38839;45.186;5.720;2023-04-03T14:26:45;99021.56;;;12.02;63.56
52975;BME280;38839;45.186;5.720;2023-04-03T14:29:12;99024.19;;;11.97;63.81
52975;BME280;38839;45.186;5.720;2023-04-03T14:31:38;99013.84;;;11.85;64.00
52975;BME280;38839;45.186;5.720;2023-04-03T14:34:04;99008.66;;;11.79;64.16
52975;BME280;38839;45.186;5.720;2023-04-03T14:36:30;99011.97;;;11.99;63.40
52975;BME280;38839;45.186;5.720;2023-04-03T14:38:57;98989.41;;;11.92;63.56
52975;BME280;38839;45.186;5.720;2023-04-03T14:41:25;98982.28;;;12.03;63.57
52975;BME280;38839;45.186;5.720;2023-04-03T14:43:51;98991.91;;;12.03;63.23
52975;BME280;38839;45.186;5.720;2023-04-03T14:46:21;98989.22;;;12.09;63.21
52975;BME280;38839;45.186;5.720;2023-04-03T14:48:47;98987.19;;;12.31;62.79
52975;BME280;38839;45.186;5.720;2023-04-03T14:51:14;98987.19;;;12.31;62.45
52975;BME280;38839;45.186;5.720;2023-04-03T14:53:41;98981.75;;;12.46;62.18